sensor_id;sensor_type;location;lat;lon;timestamp;pressure;altitude;pressure_sealevel;temperature;humidity
15260;BME280;34462;51.368;12.364;2022-09-30T00:01:48;18066.41;;;-141.84;86.59
15260;BME280;34462;51.368;12.364;2022-09-30T00:04:20;18094.84;;;-141.84;86.89
15260;BME280;34462;51.368;12.364;2022-09-30T00:06:51;18058.28;;;-141.84;86.91
15260;BME280;34462;51.368;12.364;2022-09-30T00:09:19;18044.06;;;-141.84;87.08
15260;BME280;34462;51.368;12.364;2022-09-30T00:11:48;18035.94;;;-141.84;87.23
15260;BME280;34462;51.368;12.364;2022-09-30T00:14:19;18072.50;;;-141.84;87.14
15260;BME280;34462;51.368;12.364;2022-09-30T00:16:49;18068.44;;;-141.84;87.29
15260;BME280;34462;51.368;12.364;2022-09-30T00:19:17;18025.78;;;-141.84;87.02
15260;BME280;34462;51.368;12.364;2022-09-30T00:21:45;18046.09;;;-141.84;87.01
15260;BME280;34462;51.368;12.364;2022-09-30T00:24:13;18042.03;;;-141.84;86.75
15260;BME280;34462;51.368;12.364;2022-09-30T00:26:41;18044.06;;;-141.84;86.26
15260;BME280;34462;51.368;12.364;2022-09-30T00:29:10;18017.66;;;-141.84;85.94
15260;BME280;34462;51.368;12.364;2022-09-30T00:31:38;18050.16;;;-141.84;86.09
15260;BME280;34462;51.368;12.364;2022-09-30T00:34:08;18046.09;;;-141.84;86.40
15260;BME280;34462;51.368;12.364;2022-09-30T00:36:44;18017.66;;;-141.84;86.61
15260;BME280;34462;51.368;12.364;2022-09-30T00:39:15;18040.00;;;-141.84;86.45
15260;BME280;34462;51.368;12.364;2022-09-30T00:41:48;17993.28;;;-141.84;86.23
15260;BME280;34462;51.368;12.364;2022-09-30T00:44:50;18001.41;;;-141.84;86.74
15260;BME280;34462;51.368;12.364;2022-09-30T00:47:34;18042.03;;;-141.84;86.78
15260;BME280;34462;51.368;12.364;2022-09-30T00:50:16;18042.03;;;-141.84;85.31
15260;BME280;34462;51.368;12.364;2022-09-30T00:52:53;17983.13;;;-141.84;84.62
15260;BME280;34462;51.368;12.364;2022-09-30T00:55:34;18037.97;;;-141.84;84.58
15260;BME280;34462;51.368;12.364;2022-09-30T00:58:07;18001.41;;;-141.84;84.68
15260;BME280;34462;51.368;12.364;2022-09-30T01:00:36;17993.28;;;-141.84;85.21
15260;BME280;34462;51.368;12.364;2022-09-30T01:03:05;17987.19;;;-141.84;86.00
15260;BME280;34462;51.368;12.364;2022-09-30T01:05:35;18001.41;;;-141.84;85.84
15260;BME280;34462;51.368;12.364;2022-09-30T01:08:06;17987.19;;;-141.84;85.74
15260;BME280;34462;51.368;12.364;2022-09-30T01:10:35;18027.81;;;-141.84;86.07
15260;BME280;34462;51.368;12.364;2022-09-30T01:13:04;18013.59;;;-141.84;86.45
15260;BME280;34462;51.368;12.364;2022-09-30T01:16:00;17972.97;;;-141.84;86.62
15260;BME280;34462;51.368;12.364;2022-09-30T01:18:50;17997.34;;;-141.84;84.78
15260;BME280;34462;51.368;12.364;2022-09-30T01:25:17;18021.72;;;-141.84;84.14
15260;BME280;34462;51.368;12.364;2022-09-30T01:31:20;17985.16;;;-141.84;84.28
15260;BME280;34462;51.368;12.364;2022-09-30T01:34:01;17991.25;;;-141.84;84.85
15260;BME280;34462;51.368;12.364;2022-09-30T01:36:51;17975.00;;;-141.84;85.02
15260;BME280;34462;51.368;12.364;2022-09-30T01:39:36;17987.19;;;-141.84;85.19
15260;BME280;34462;51.368;12.364;2022-09-30T01:42:14;18001.41;;;-141.84;84.65
15260;BME280;34462;51.368;12.364;2022-09-30T01:44:55;17981.09;;;-141.84;84.63
15260;BME280;34462;51.368;12.364;2022-09-30T01:47:35;18015.63;;;-141.84;85.01
15260;BME280;34462;51.368;12.364;2022-09-30T01:50:17;17985.16;;;-141.84;84.99
15260;BME280;34462;51.368;12.364;2022-09-30T01:52:55;18005.47;;;-141.84;84.39
15260;BME280;34462;51.368;12.364;2022-09-30T01:55:37;17985.16;;;-141.84;84.42
15260;BME280;34462;51.368;12.364;2022-09-30T01:58:12;17970.94;;;-141.84;84.03
15260;BME280;34462;51.368;12.364;2022-09-30T02:00:48;17997.34;;;-141.84;83.62
15260;BME280;34462;51.368;12.364;2022-09-30T02:03:26;18001.41;;;-141.84;83.99
15260;BME280;34462;51.368;12.364;2022-09-30T02:06:01;17966.88;;;-141.84;84.27
15260;BME280;34462;51.368;12.364;2022-09-30T02:08:38;17981.09;;;-141.84;84.51
15260;BME280;34462;51.368;12.364;2022-09-30T02:11:14;17997.34;;;-141.84;84.28
15260;BME280;34462;51.368;12.364;2022-09-30T02:13:48;17981.09;;;-141.84;84.21
15260;BME280;34462;51.368;12.364;2022-09-30T02:16:25;17987.19;;;-141.84;84.49
15260;BME280;34462;51.368;12.364;2022-09-30T02:19:00;17981.09;;;-141.84;83.65
15260;BME280;34462;51.368;12.364;2022-09-30T02:21:36;17966.88;;;-141.84;83.45
15260;BME280;34462;51.368;12.364;2022-09-30T02:24:11;17972.97;;;-141.84;83.34
15260;BME280;34462;51.368;12.364;2022-09-30T02:26:44;18005.47;;;-141.84;83.70
15260;BME280;34462;51.368;12.364;2022-09-30T02:29:17;17985.16;;;-141.84;84.05
15260;BME280;34462;51.368;12.364;2022-09-30T02:31:53;17995.31;;;-141.84;84.29
15260;BME280;34462;51.368;12.364;2022-09-30T02:34:28;17981.09;;;-141.84;84.90
15260;BME280;34462;51.368;12.364;2022-09-30T02:37:05;17968.91;;;-141.84;84.72
15260;BME280;34462;51.368;12.364;2022-09-30T02:39:42;17964.84;;;-141.84;84.55
15260;BME280;34462;51.368;12.364;2022-09-30T02:42:18;17930.31;;;-141.84;84.50
15260;BME280;34462;51.368;12.364;2022-09-30T02:44:50;17975.00;;;-141.84;84.57
15260;BME280;34462;51.368;12.364;2022-09-30T02:47:29;17970.94;;;-141.84;84.81
15260;BME280;34462;51.368;12.364;2022-09-30T02:50:11;17968.91;;;-141.84;85.29
15260;BME280;34462;51.368;12.364;2022-09-30T02:52:57;17952.66;;;-141.84;85.03
15260;BME280;34462;51.368;12.364;2022-09-30T02:55:35;17972.97;;;-141.84;85.47
15260;BME280;34462;51.368;12.364;2022-09-30T02:58:16;17952.66;;;-141.84;85.56
15260;BME280;34462;51.368;12.364;2022-09-30T03:00:47;17916.06;;;-141.84;86.01
15260;BME280;34462;51.368;12.364;2022-09-30T03:03:20;17905.91;;;-141.84;86.07
15260;BME280;34462;51.368;12.364;2022-09-30T03:05:52;17922.16;;;-141.84;86.08
15260;BME280;34462;51.368;12.364;2022-09-30T03:08:20;17942.50;;;-141.84;85.97
15260;BME280;34462;51.368;12.364;2022-09-30T03:10:50;17948.59;;;-141.84;84.51
15260;BME280;34462;51.368;12.364;2022-09-30T03:13:46;17952.66;;;-141.84;84.32
15260;BME280;34462;51.368;12.364;2022-09-30T03:16:30;17946.56;;;-141.84;84.70
15260;BME280;34462;51.368;12.364;2022-09-30T03:19:21;17934.38;;;-141.84;84.80
15260;BME280;34462;51.368;12.364;2022-09-30T03:22:27;17958.75;;;-141.84;83.61
15260;BME280;34462;51.368;12.364;2022-09-30T03:25:16;17930.31;;;-141.84;83.87
15260;BME280;34462;51.368;12.364;2022-09-30T03:28:05;17956.72;;;-141.84;84.14
15260;BME280;34462;51.368;12.364;2022-09-30T03:30:47;17942.50;;;-141.84;84.39
15260;BME280;34462;51.368;12.364;2022-09-30T03:33:24;17932.34;;;-141.84;84.97
15260;BME280;34462;51.368;12.364;2022-09-30T03:36:04;17938.44;;;-141.84;85.00
15260;BME280;34462;51.368;12.364;2022-09-30T03:38:46;17920.13;;;-141.84;85.42
15260;BME280;34462;51.368;12.364;2022-09-30T03:41:27;17909.97;;;-141.84;85.72
15260;BME280;34462;51.368;12.364;2022-09-30T03:44:04;17942.50;;;-141.84;86.02
15260;BME280;34462;51.368;12.364;2022-09-30T03:46:40;17907.94;;;-141.84;85.57
15260;BME280;34462;51.368;12.364;2022-09-30T03:49:15;17920.13;;;-141.84;85.31
15260;BME280;34462;51.368;12.364;2022-09-30T03:51:46;17916.06;;;-141.84;85.17
15260;BME280;34462;51.368;12.364;2022-09-30T03:54:18;17907.94;;;-141.84;85.04
15260;BME280;34462;51.368;12.364;2022-09-30T03:56:46;17907.94;;;-141.84;85.31
15260;BME280;34462;51.368;12.364;2022-09-30T03:59:21;17889.66;;;-141.84;85.66
15260;BME280;34462;51.368;12.364;2022-09-30T04:01:51;17903.88;;;-141.84;86.03
15260;BME280;34462;51.368;12.364;2022-09-30T04:04:20;17873.41;;;-141.84;86.67
15260;BME280;34462;51.368;12.364;2022-09-30T04:06:48;17889.66;;;-141.84;87.03
15260;BME280;34462;51.368;12.364;2022-09-30T04:09:17;17873.41;;;-141.84;86.82
15260;BME280;34462;51.368;12.364;2022-09-30T04:11:46;17897.78;;;-141.84;86.95
15260;BME280;34462;51.368;12.364;2022-09-30T04:14:14;17897.78;;;-141.84;86.98
15260;BME280;34462;51.368;12.364;2022-09-30T04:16:42;17889.66;;;-141.84;87.12
15260;BME280;34462;51.368;12.364;2022-09-30T04:19:10;17905.91;;;-141.84;87.05
15260;BME280;34462;51.368;12.364;2022-09-30T04:21:38;17897.78;;;-141.84;87.03
15260;BME280;34462;51.368;12.364;2022-09-30T04:24:07;17891.69;;;-141.84;87.03
15260;BME280;34462;51.368;12.364;2022-09-30T04:26:36;17879.50;;;-141.84;87.14
15260;BME280;34462;51.368;12.364;2022-09-30T04:29:04;17873.41;;;-141.84;87.33
15260;BME280;34462;51.368;12.364;2022-09-30T04:31:32;17903.88;;;-141.84;87.01
15260;BME280;34462;51.368;12.364;2022-09-30T04:34:01;17879.50;;;-141.84;86.73
15260;BME280;34462;51.368;12.364;2022-09-30T04:36:29;17869.34;;;-141.84;86.88
15260;BME280;34462;51.368;12.364;2022-09-30T04:38:57;17871.38;;;-141.84;86.93
15260;BME280;34462;51.368;12.364;2022-09-30T04:41:25;17853.09;;;-141.84;86.92
15260;BME280;34462;51.368;12.364;2022-09-30T04:43:54;17877.47;;;-141.84;87.27
15260;BME280;34462;51.368;12.364;2022-09-30T04:46:22;17889.66;;;-141.84;87.49
15260;BME280;34462;51.368;12.364;2022-09-30T04:48:51;17859.19;;;-141.84;87.26
15260;BME280;34462;51.368;12.364;2022-09-30T04:51:20;17847.00;;;-141.84;87.28
15260;BME280;34462;51.368;12.364;2022-09-30T04:53:48;17907.94;;;-141.84;86.73
15260;BME280;34462;51.368;12.364;2022-09-30T04:56:17;17889.66;;;-141.84;85.95
15260;BME280;34462;51.368;12.364;2022-09-30T04:58:45;17899.81;;;-141.84;85.96
15260;BME280;34462;51.368;12.364;2022-09-30T05:01:16;17859.19;;;-141.84;86.02
15260;BME280;34462;51.368;12.364;2022-09-30T05:03:44;17851.06;;;-141.84;86.11
15260;BME280;34462;51.368;12.364;2022-09-30T05:06:14;17863.25;;;-141.84;86.51
15260;BME280;34462;51.368;12.364;2022-09-30T05:08:43;17851.06;;;-141.84;86.74
15260;BME280;34462;51.368;12.364;2022-09-30T05:11:15;17867.31;;;-141.84;86.77
15260;BME280;34462;51.368;12.364;2022-09-30T05:13:45;17869.34;;;-141.84;86.86
15260;BME280;34462;51.368;12.364;2022-09-30T05:16:16;17861.22;;;-141.84;87.17
15260;BME280;34462;51.368;12.364;2022-09-30T05:18:44;17855.13;;;-141.84;87.23
15260;BME280;34462;51.368;12.364;2022-09-30T05:21:14;17885.59;;;-141.84;86.05
15260;BME280;34462;51.368;12.364;2022-09-30T05:23:45;17887.63;;;-141.84;85.76
15260;BME280;34462;51.368;12.364;2022-09-30T05:26:13;17857.16;;;-141.84;85.98
15260;BME280;34462;51.368;12.364;2022-09-30T05:28:41;17877.47;;;-141.84;86.34
15260;BME280;34462;51.368;12.364;2022-09-30T05:31:10;17863.25;;;-141.84;86.53
15260;BME280;34462;51.368;12.364;2022-09-30T05:33:40;17871.38;;;-141.84;85.11
15260;BME280;34462;51.368;12.364;2022-09-30T05:36:12;17897.78;;;-141.84;84.03
15260;BME280;34462;51.368;12.364;2022-09-30T05:38:41;17928.28;;;-141.84;83.82
15260;BME280;34462;51.368;12.364;2022-09-30T05:41:12;17895.75;;;-141.84;84.07
15260;BME280;34462;51.368;12.364;2022-09-30T05:43:42;17903.88;;;-141.84;84.55
15260;BME280;34462;51.368;12.364;2022-09-30T05:46:13;17873.41;;;-141.84;84.81
15260;BME280;34462;51.368;12.364;2022-09-30T05:48:44;17901.84;;;-141.84;85.32
15260;BME280;34462;51.368;12.364;2022-09-30T05:51:12;17883.56;;;-141.84;85.66
15260;BME280;34462;51.368;12.364;2022-09-30T05:53:41;17938.44;;;-141.84;85.65
15260;BME280;34462;51.368;12.364;2022-09-30T05:56:10;17912.00;;;-141.84;85.46
15260;BME280;34462;51.368;12.364;2022-09-30T05:58:38;17863.25;;;-141.84;85.79
15260;BME280;34462;51.368;12.364;2022-09-30T06:01:10;17883.56;;;-141.84;86.07
15260;BME280;34462;51.368;12.364;2022-09-30T06:03:40;17905.91;;;-141.84;85.76
15260;BME280;34462;51.368;12.364;2022-09-30T06:06:11;17979.06;;;-141.84;85.67
15260;BME280;34462;51.368;12.364;2022-09-30T06:08:40;17901.84;;;-141.84;85.42
15260;BME280;34462;51.368;12.364;2022-09-30T06:11:11;17914.03;;;-141.84;85.30
15260;BME280;34462;51.368;12.364;2022-09-30T06:13:41;17909.97;;;-141.84;85.33
15260;BME280;34462;51.368;12.364;2022-09-30T06:16:11;17960.78;;;-141.84;84.65
15260;BME280;34462;51.368;12.364;2022-09-30T06:18:40;17968.91;;;-141.84;84.00
15260;BME280;34462;51.368;12.364;2022-09-30T06:21:12;17968.91;;;-141.84;83.69
15260;BME280;34462;51.368;12.364;2022-09-30T06:23:41;17958.75;;;-141.84;83.50
15260;BME280;34462;51.368;12.364;2022-09-30T06:26:11;17972.97;;;-141.84;82.44
15260;BME280;34462;51.368;12.364;2022-09-30T06:28:40;18033.91;;;-141.84;81.42
15260;BME280;34462;51.368;12.364;2022-09-30T06:31:09;17999.38;;;-141.84;81.38
15260;BME280;34462;51.368;12.364;2022-09-30T06:33:37;18056.25;;;-141.84;81.28
15260;BME280;34462;51.368;12.364;2022-09-30T06:36:05;18054.22;;;-141.84;81.75
15260;BME280;34462;51.368;12.364;2022-09-30T06:38:35;18064.38;;;-141.84;80.69
15260;BME280;34462;51.368;12.364;2022-09-30T06:41:05;18105.00;;;-141.84;79.77
15260;BME280;34462;51.368;12.364;2022-09-30T06:43:33;18121.25;;;-141.84;79.17
15260;BME280;34462;51.368;12.364;2022-09-30T06:46:13;18170.00;;;-141.84;78.07
15260;BME280;34462;51.368;12.364;2022-09-30T06:48:54;18174.06;;;-141.84;77.64
15260;BME280;34462;51.368;12.364;2022-09-30T06:51:39;18198.44;;;-141.84;77.22
15260;BME280;34462;51.368;12.364;2022-09-30T06:54:09;18247.22;;;-141.84;75.98
15260;BME280;34462;51.368;12.364;2022-09-30T06:56:38;18265.50;;;-141.84;75.14
15260;BME280;34462;51.368;12.364;2022-09-30T06:59:06;18271.59;;;-141.84;74.34
15260;BME280;34462;51.368;12.364;2022-09-30T07:01:34;18324.41;;;-141.84;74.36
15260;BME280;34462;51.368;12.364;2022-09-30T07:04:02;18330.50;;;-141.84;74.22
15260;BME280;34462;51.368;12.364;2022-09-30T07:06:35;18320.34;;;-141.84;74.08
15260;BME280;34462;51.368;12.364;2022-09-30T07:09:05;18385.34;;;-141.84;72.92
15260;BME280;34462;51.368;12.364;2022-09-30T07:11:36;18409.72;;;-141.84;72.49
15260;BME280;34462;51.368;12.364;2022-09-30T07:14:04;18446.31;;;-141.84;71.61
15260;BME280;34462;51.368;12.364;2022-09-30T07:16:33;18497.09;;;-141.84;71.52
15260;BME280;34462;51.368;12.364;2022-09-30T07:19:03;18499.13;;;-141.84;71.89
15260;BME280;34462;51.368;12.364;2022-09-30T07:21:32;18556.00;;;-141.84;71.20
15260;BME280;34462;51.368;12.364;2022-09-30T07:24:01;18572.25;;;-141.84;71.18
15260;BME280;34462;51.368;12.364;2022-09-30T07:26:29;18606.81;;;-141.84;70.15
15260;BME280;34462;51.368;12.364;2022-09-30T07:28:58;18608.84;;;-141.84;69.62
15260;BME280;34462;51.368;12.364;2022-09-30T07:31:27;18665.72;;;-141.84;69.22
15260;BME280;34462;51.368;12.364;2022-09-30T07:34:02;18686.03;;;-141.84;69.75
15260;BME280;34462;51.368;12.364;2022-09-30T07:36:33;18679.94;;;-141.84;69.95
15260;BME280;34462;51.368;12.364;2022-09-30T07:39:06;18657.59;;;-141.84;70.00
15260;BME280;34462;51.368;12.364;2022-09-30T07:41:37;18661.66;;;-141.84;69.92
15260;BME280;34462;51.368;12.364;2022-09-30T07:44:11;18686.03;;;-141.84;70.00
15260;BME280;34462;51.368;12.364;2022-09-30T07:46:42;18675.88;;;-141.84;69.90
15260;BME280;34462;51.368;12.364;2022-09-30T07:49:13;18681.97;;;-141.84;69.87
15260;BME280;34462;51.368;12.364;2022-09-30T07:51:53;18722.63;;;-141.84;69.48
15260;BME280;34462;51.368;12.364;2022-09-30T07:54:25;18779.50;;;-141.84;69.57
15260;BME280;34462;51.368;12.364;2022-09-30T07:56:55;18793.72;;;-141.84;68.35
15260;BME280;34462;51.368;12.364;2022-09-30T07:59:39;18877.03;;;-141.84;67.99
15260;BME280;34462;51.368;12.364;2022-09-30T08:02:14;18944.09;;;-141.84;67.37
15260;BME280;34462;51.368;12.364;2022-09-30T08:04:43;18858.75;;;-141.84;67.66
15260;BME280;34462;51.368;12.364;2022-09-30T08:07:13;18905.47;;;-141.84;67.82
15260;BME280;34462;51.368;12.364;2022-09-30T08:09:42;18968.47;;;-141.84;67.04
15260;BME280;34462;51.368;12.364;2022-09-30T08:12:10;18988.78;;;-141.84;66.48
15260;BME280;34462;51.368;12.364;2022-09-30T08:14:40;19013.16;;;-141.84;66.17
15260;BME280;34462;51.368;12.364;2022-09-30T08:17:08;19033.50;;;-141.84;66.07
15260;BME280;34462;51.368;12.364;2022-09-30T08:19:36;19049.75;;;-141.84;66.09
15260;BME280;34462;51.368;12.364;2022-09-30T08:22:07;19098.50;;;-141.84;65.73
15260;BME280;34462;51.368;12.364;2022-09-30T08:24:36;19116.81;;;-141.84;65.42
15260;BME280;34462;51.368;12.364;2022-09-30T08:27:04;19137.13;;;-141.84;65.35
15260;BME280;34462;51.368;12.364;2022-09-30T08:29:32;19159.47;;;-141.84;64.97
15260;BME280;34462;51.368;12.364;2022-09-30T08:32:21;19185.88;;;-141.84;64.97
15260;BME280;34462;51.368;12.364;2022-09-30T08:34:49;19252.94;;;-141.84;64.48
15260;BME280;34462;51.368;12.364;2022-09-30T08:37:17;19273.28;;;-141.84;64.19
15260;BME280;34462;51.368;12.364;2022-09-30T08:39:45;19328.13;;;-141.84;63.45
15260;BME280;34462;51.368;12.364;2022-09-30T08:42:50;19372.84;;;-141.84;63.54
15260;BME280;34462;51.368;12.364;2022-09-30T08:45:35;19378.94;;;-141.84;63.33
15260;BME280;34462;51.368;12.364;2022-09-30T08:48:31;19370.81;;;-141.84;63.59
15260;BME280;34462;51.368;12.364;2022-09-30T08:51:16;19478.50;;;-141.84;62.07
15260;BME280;34462;51.368;12.364;2022-09-30T08:53:51;19500.88;;;-141.84;61.88
15260;BME280;34462;51.368;12.364;2022-09-30T08:56:23;19458.19;;;-141.84;62.79
15260;BME280;34462;51.368;12.364;2022-09-30T08:58:58;19502.91;;;-141.84;62.65
15260;BME280;34462;51.368;12.364;2022-09-30T09:01:32;19547.59;;;-141.84;61.93
15260;BME280;34462;51.368;12.364;2022-09-30T09:04:05;19596.38;;;-141.84;61.80
15260;BME280;34462;51.368;12.364;2022-09-30T09:06:47;19594.34;;;-141.84;61.55
15260;BME280;34462;51.368;12.364;2022-09-30T09:09:47;19639.06;;;-141.84;61.34
15260;BME280;34462;51.368;12.364;2022-09-30T09:12:32;19667.50;;;-141.84;60.78
15260;BME280;34462;51.368;12.364;2022-09-30T09:15:34;19712.22;;;-141.84;60.25
15260;BME280;34462;51.368;12.364;2022-09-30T09:18:47;19750.84;;;-141.84;59.66
15260;BME280;34462;51.368;12.364;2022-09-30T09:21:36;19777.25;;;-141.84;60.31
15260;BME280;34462;51.368;12.364;2022-09-30T09:24:15;19817.91;;;-141.84;59.80
15260;BME280;34462;51.368;12.364;2022-09-30T09:26:46;19846.34;;;-141.84;59.51
15260;BME280;34462;51.368;12.364;2022-09-30T09:29:37;19915.47;;;-141.84;59.07
15260;BME280;34462;51.368;12.364;2022-09-30T09:32:13;19899.19;;;-141.84;59.41
15260;BME280;34462;51.368;12.364;2022-09-30T09:34:43;19901.22;;;-141.84;59.07
15260;BME280;34462;51.368;12.364;2022-09-30T09:37:21;19893.09;;;-141.84;58.73
15260;BME280;34462;51.368;12.364;2022-09-30T09:40:24;19876.84;;;-141.84;59.20
15260;BME280;34462;51.368;12.364;2022-09-30T09:43:05;19878.88;;;-141.84;59.49
15260;BME280;34462;51.368;12.364;2022-09-30T09:45:48;19919.53;;;-141.84;59.20
15260;BME280;34462;51.368;12.364;2022-09-30T09:48:18;19962.19;;;-141.84;58.23
15260;BME280;34462;51.368;12.364;2022-09-30T09:50:58;20076.03;;;-141.84;56.42
15260;BME280;34462;51.368;12.364;2022-09-30T09:53:48;20082.13;;;-141.84;56.44
15260;BME280;34462;51.368;12.364;2022-09-30T09:56:19;20102.44;;;-141.84;57.28
15260;BME280;34462;51.368;12.364;2022-09-30T09:59:11;20139.03;;;-141.84;55.92
15260;BME280;34462;51.368;12.364;2022-09-30T10:01:45;20161.38;;;-141.84;56.57
15260;BME280;34462;51.368;12.364;2022-09-30T10:04:19;20179.69;;;-141.84;56.05
15260;BME280;34462;51.368;12.364;2022-09-30T10:06:52;20143.09;;;-141.84;56.20
15260;BME280;34462;51.368;12.364;2022-09-30T10:09:26;20204.06;;;-141.84;54.80
15260;BME280;34462;51.368;12.364;2022-09-30T10:12:27;20204.06;;;-141.84;55.05
15260;BME280;34462;51.368;12.364;2022-09-30T10:15:02;20248.78;;;-141.84;55.02
15260;BME280;34462;51.368;12.364;2022-09-30T10:17:34;20287.41;;;-141.84;54.31
15260;BME280;34462;51.368;12.364;2022-09-30T10:20:07;20309.75;;;-141.84;53.52
15260;BME280;34462;51.368;12.364;2022-09-30T10:22:36;20313.84;;;-141.84;53.57
15260;BME280;34462;51.368;12.364;2022-09-30T10:25:21;20334.16;;;-141.84;52.92
15260;BME280;34462;51.368;12.364;2022-09-30T10:27:55;20358.56;;;-141.84;52.90
15260;BME280;34462;51.368;12.364;2022-09-30T10:30:46;20391.06;;;-141.84;52.27
15260;BME280;34462;51.368;12.364;2022-09-30T10:33:25;20395.13;;;-141.84;51.68
15260;BME280;34462;51.368;12.364;2022-09-30T10:36:07;20417.50;;;-141.84;52.18
15260;BME280;34462;51.368;12.364;2022-09-30T10:38:50;20407.34;;;-141.84;52.74
15260;BME280;34462;51.368;12.364;2022-09-30T10:41:27;20423.59;;;-141.84;51.92
15260;BME280;34462;51.368;12.364;2022-09-30T10:43:59;20447.97;;;-141.84;51.85
15260;BME280;34462;51.368;12.364;2022-09-30T10:46:31;20435.78;;;-141.84;52.14
15260;BME280;34462;51.368;12.364;2022-09-30T10:49:09;20468.31;;;-141.84;51.73
15260;BME280;34462;51.368;12.364;2022-09-30T10:51:38;20488.63;;;-141.84;51.65
15260;BME280;34462;51.368;12.364;2022-09-30T10:54:43;20496.78;;;-141.84;51.17
15260;BME280;34462;51.368;12.364;2022-09-30T10:57:19;20506.94;;;-141.84;50.26
15260;BME280;34462;51.368;12.364;2022-09-30T10:59:51;20513.03;;;-141.84;49.86
15260;BME280;34462;51.368;12.364;2022-09-30T11:02:29;20488.63;;;-141.84;50.64
15260;BME280;34462;51.368;12.364;2022-09-30T11:05:10;20525.22;;;-141.84;50.24
15260;BME280;34462;51.368;12.364;2022-09-30T11:07:50;20521.16;;;-141.84;50.01
15260;BME280;34462;51.368;12.364;2022-09-30T11:10:33;20531.31;;;-141.84;50.26
15260;BME280;34462;51.368;12.364;2022-09-30T11:13:16;20535.41;;;-141.84;49.43
15260;BME280;34462;51.368;12.364;2022-09-30T11:15:56;20529.28;;;-141.84;49.57
15260;BME280;34462;51.368;12.364;2022-09-30T11:18:37;20517.09;;;-141.84;49.85
15260;BME280;34462;51.368;12.364;2022-09-30T11:21:17;20517.09;;;-141.84;50.98
15260;BME280;34462;51.368;12.364;2022-09-30T11:23:51;20551.66;;;-141.84;50.47
15260;BME280;34462;51.368;12.364;2022-09-30T11:26:34;20584.19;;;-141.84;50.40
15260;BME280;34462;51.368;12.364;2022-09-30T11:29:35;20592.31;;;-141.84;49.36
15260;BME280;34462;51.368;12.364;2022-09-30T11:32:22;20545.56;;;-141.84;50.14
15260;BME280;34462;51.368;12.364;2022-09-30T11:35:05;20525.22;;;-141.84;50.57
15260;BME280;34462;51.368;12.364;2022-09-30T11:37:59;20574.00;;;-141.84;50.34
15260;BME280;34462;51.368;12.364;2022-09-30T11:40:36;20557.75;;;-141.84;50.13
15260;BME280;34462;51.368;12.364;2022-09-30T11:43:27;20551.66;;;-141.84;49.25
15260;BME280;34462;51.368;12.364;2022-09-30T11:46:23;20571.97;;;-141.84;49.73
15260;BME280;34462;51.368;12.364;2022-09-30T11:49:15;20657.34;;;-141.84;48.82
15260;BME280;34462;51.368;12.364;2022-09-30T11:52:05;20663.47;;;-141.84;48.55
15260;BME280;34462;51.368;12.364;2022-09-30T11:55:02;20630.94;;;-141.84;48.20
15260;BME280;34462;51.368;12.364;2022-09-30T11:57:50;20683.78;;;-141.84;47.69
15260;BME280;34462;51.368;12.364;2022-09-30T12:00:20;20679.72;;;-141.84;47.29
15260;BME280;34462;51.368;12.364;2022-09-30T12:02:53;20811.84;;;-141.84;46.39
15260;BME280;34462;51.368;12.364;2022-09-30T12:05:30;20811.84;;;-141.84;46.60
15260;BME280;34462;51.368;12.364;2022-09-30T12:08:09;20836.25;;;-141.84;46.25
15260;BME280;34462;51.368;12.364;2022-09-30T12:10:44;20787.47;;;-141.84;46.21
15260;BME280;34462;51.368;12.364;2022-09-30T12:13:19;20830.16;;;-141.84;45.97
15260;BME280;34462;51.368;12.364;2022-09-30T12:15:52;20791.53;;;-141.84;46.76
15260;BME280;34462;51.368;12.364;2022-09-30T12:18:30;20779.31;;;-141.84;45.24
15260;BME280;34462;51.368;12.364;2022-09-30T12:21:06;20726.47;;;-141.84;46.43
15260;BME280;34462;51.368;12.364;2022-09-30T12:23:44;20730.53;;;-141.84;46.40
15260;BME280;34462;51.368;12.364;2022-09-30T12:26:14;20720.38;;;-141.84;46.93
15260;BME280;34462;51.368;12.364;2022-09-30T12:28:49;20691.91;;;-141.84;47.15
15260;BME280;34462;51.368;12.364;2022-09-30T12:32:10;20718.34;;;-141.84;48.01
15260;BME280;34462;51.368;12.364;2022-09-30T12:35:02;20763.06;;;-141.84;46.33
15260;BME280;34462;51.368;12.364;2022-09-30T12:38:01;20793.56;;;-141.84;46.55
15260;BME280;34462;51.368;12.364;2022-09-30T12:40:51;20797.63;;;-141.84;46.36
15260;BME280;34462;51.368;12.364;2022-09-30T12:44:02;20844.38;;;-141.84;46.76
15260;BME280;34462;51.368;12.364;2022-09-30T12:47:07;20775.25;;;-141.84;46.69
15260;BME280;34462;51.368;12.364;2022-09-30T12:49:42;20891.13;;;-141.84;46.38
15260;BME280;34462;51.368;12.364;2022-09-30T12:52:17;20836.25;;;-141.84;46.31
15260;BME280;34462;51.368;12.364;2022-09-30T12:54:51;20742.75;;;-141.84;47.05
15260;BME280;34462;51.368;12.364;2022-09-30T12:57:27;20679.72;;;-141.84;48.13
15260;BME280;34462;51.368;12.364;2022-09-30T13:00:06;20651.25;;;-141.84;48.86
15260;BME280;34462;51.368;12.364;2022-09-30T13:02:44;20606.53;;;-141.84;49.32
15260;BME280;34462;51.368;12.364;2022-09-30T13:05:52;20643.13;;;-141.84;48.94
15260;BME280;34462;51.368;12.364;2022-09-30T13:08:43;20671.59;;;-141.84;48.48
15260;BME280;34462;51.368;12.364;2022-09-30T13:11:41;20799.66;;;-141.84;47.75
15260;BME280;34462;51.368;12.364;2022-09-30T13:14:30;20838.28;;;-141.84;45.97
15260;BME280;34462;51.368;12.364;2022-09-30T13:17:26;20850.47;;;-141.84;45.79
15260;BME280;34462;51.368;12.364;2022-09-30T13:19:54;20844.38;;;-141.84;45.82
15260;BME280;34462;51.368;12.364;2022-09-30T13:22:58;20838.28;;;-141.84;46.41
15260;BME280;34462;51.368;12.364;2022-09-30T13:25:52;20797.63;;;-141.84;46.83